createdAt,value
2019-01-25T00:00:13.477Z,27.90
2019-01-25T00:02:41.900Z,26.35
2019-01-25T00:05:10.665Z,28.35
2019-01-25T00:07:39.084Z,28.92
2019-01-25T00:10:09.147Z,29.30
2019-01-25T00:12:37.612Z,26.45
2019-01-25T00:15:09.081Z,27.30
2019-01-25T00:17:37.557Z,25.82
2019-01-25T00:20:11.701Z,26.48
2019-01-25T00:22:40.232Z,25.90
2019-01-25T00:25:09.208Z,27.67
2019-01-25T00:27:37.680Z,26.73
2019-01-25T00:30:15.069Z,28.67
2019-01-25T00:32:43.490Z,26.27
2019-01-25T00:35:11.983Z,26.70
2019-01-25T00:37:40.381Z,27.70
2019-01-25T00:40:14.661Z,26.95
2019-01-25T00:42:43.087Z,28.50
2019-01-25T00:45:12.539Z,26.95
2019-01-25T00:47:40.948Z,27.27
2019-01-25T00:50:12.517Z,27.40
2019-01-25T00:52:40.928Z,27.70
2019-01-25T00:55:09.782Z,25.55
2019-01-25T00:57:38.187Z,27.02
2019-01-25T01:00:09.779Z,26.52
2019-01-25T01:02:38.175Z,25.75
2019-01-25T01:05:07.131Z,27.50
2019-01-25T01:07:35.539Z,28.67
2019-01-25T01:10:06.416Z,27.98
2019-01-25T01:12:34.808Z,27.97
2019-01-25T01:15:05.035Z,27.90
2019-01-25T01:17:33.440Z,27.40
2019-01-25T01:20:01.841Z,27.73
2019-01-25T01:22:30.244Z,26.85
2019-01-25T01:24:58.661Z,27.62
2019-01-25T01:27:27.060Z,26.70
2019-01-25T01:29:55.482Z,27.02
2019-01-25T01:32:23.964Z,27.25
2019-01-25T01:34:52.366Z,28.40
2019-01-25T01:37:20.782Z,27.55
2019-01-25T01:39:49.180Z,26.40
2019-01-25T01:42:17.615Z,26.00
2019-01-25T01:44:46.034Z,26.52
2019-01-25T01:47:14.437Z,25.70
2019-01-25T01:49:42.859Z,26.15
2019-01-25T01:52:11.299Z,26.68
2019-01-25T01:54:39.753Z,27.48
2019-01-25T01:57:08.191Z,27.67
2019-01-25T01:59:36.600Z,26.82
2019-01-25T02:02:05.195Z,26.95
2019-01-25T02:04:33.592Z,27.32
2019-01-25T02:07:02.007Z,26.90
2019-01-25T02:09:30.434Z,27.40
2019-01-25T02:11:58.871Z,26.80
2019-01-25T02:14:27.272Z,26.70
2019-01-25T02:16:55.683Z,26.77
2019-01-25T02:19:24.123Z,27.55
2019-01-25T02:21:52.537Z,27.30
2019-01-25T02:24:20.945Z,27.32
2019-01-25T02:26:49.388Z,26.45
2019-01-25T02:29:17.783Z,26.68
2019-01-25T02:31:46.197Z,26.93
2019-01-25T02:34:14.892Z,26.30
2019-01-25T02:36:43.394Z,28.30
2019-01-25T02:39:11.897Z,29.10
2019-01-25T02:41:40.303Z,30.97
2019-01-25T02:44:08.711Z,30.32
2019-01-25T02:46:37.135Z,30.10
2019-01-25T02:49:05.542Z,30.57
2019-01-25T02:51:34.241Z,31.02
2019-01-25T02:54:02.666Z,29.27
2019-01-25T02:56:31.067Z,30.62
2019-01-25T02:58:59.503Z,29.18
2019-01-25T03:01:27.947Z,28.57
2019-01-25T03:03:56.344Z,27.70
2019-01-25T03:06:24.887Z,29.50
2019-01-25T03:08:53.313Z,28.40
2019-01-25T03:11:21.720Z,28.95
2019-01-25T03:13:50.123Z,29.67
2019-01-25T03:16:18.844Z,28.97
2019-01-25T03:18:47.261Z,29.27
2019-01-25T03:21:15.672Z,30.60
2019-01-25T03:23:44.108Z,30.35
2019-01-25T03:26:12.504Z,28.25
2019-01-25T03:28:40.935Z,27.73
2019-01-25T03:31:09.340Z,28.25
2019-01-25T03:33:37.771Z,28.92
2019-01-25T03:36:06.244Z,30.80
2019-01-25T03:38:34.956Z,29.10
2019-01-25T03:41:03.392Z,28.23
2019-01-25T03:43:31.803Z,28.87
2019-01-25T03:46:00.204Z,28.00
2019-01-25T03:48:28.616Z,28.30
2019-01-25T03:50:57.016Z,29.77
2019-01-25T03:53:25.423Z,28.60
2019-01-25T03:55:53.836Z,29.10
2019-01-25T03:58:22.244Z,29.67
2019-01-25T04:00:50.651Z,27.05
2019-01-25T04:03:19.098Z,28.20
2019-01-25T04:05:47.587Z,27.90
2019-01-25T04:08:16.204Z,29.63
2019-01-25T04:10:44.616Z,27.98
2019-01-25T04:13:13.024Z,29.40
2019-01-25T04:15:41.444Z,29.75
2019-01-25T04:18:09.873Z,28.90
2019-01-25T04:20:38.271Z,30.17
2019-01-25T04:23:06.756Z,30.55
2019-01-25T04:25:35.169Z,30.53
2019-01-25T04:28:03.567Z,30.10
2019-01-25T04:30:33.057Z,28.62
2019-01-25T04:33:01.649Z,29.70
2019-01-25T04:35:30.065Z,29.60
2019-01-25T04:37:58.536Z,29.35
2019-01-25T04:40:27.041Z,28.57
2019-01-25T04:42:55.448Z,28.05
2019-01-25T04:45:24.244Z,29.17
2019-01-25T04:47:52.994Z,28.98
2019-01-25T04:50:23.041Z,31.40
2019-01-25T04:52:51.594Z,29.70
2019-01-25T04:55:24.963Z,29.37
2019-01-25T04:57:53.520Z,29.70
2019-01-25T05:00:23.387Z,30.10
2019-01-25T05:02:59.735Z,31.25
2019-01-25T05:05:29.108Z,32.00
2019-01-25T05:08:06.390Z,31.00
2019-01-25T05:10:35.017Z,31.87
2019-01-25T05:13:03.407Z,30.70
2019-01-25T05:15:31.830Z,30.10
2019-01-25T05:18:00.248Z,32.30
2019-01-25T05:20:28.720Z,32.60
2019-01-25T05:23:01.810Z,30.02
2019-01-25T05:25:30.301Z,30.35
2019-01-25T05:28:04.333Z,31.27
2019-01-25T05:30:32.743Z,31.40
2019-01-25T05:33:01.160Z,32.25
2019-01-25T05:35:34.270Z,30.97
2019-01-25T05:38:02.690Z,31.80
2019-01-25T05:40:31.134Z,31.80
2019-01-25T05:42:59.600Z,31.60
2019-01-25T05:45:28.042Z,31.20
2019-01-25T05:47:56.473Z,29.42
2019-01-25T05:50:24.883Z,30.68
2019-01-25T05:52:53.382Z,31.35
2019-01-25T05:55:22.747Z,32.10
2019-01-25T05:57:54.351Z,31.82
2019-01-25T06:00:30.471Z,29.97
2019-01-25T06:03:04.864Z,30.32
2019-01-25T06:05:33.282Z,30.68
2019-01-25T06:08:01.696Z,31.40
2019-01-25T06:10:34.235Z,32.90
2019-01-25T06:13:02.655Z,32.60
2019-01-25T06:15:31.095Z,31.25
2019-01-25T06:18:01.541Z,29.98
2019-01-25T06:20:30.105Z,31.12
2019-01-25T06:22:58.536Z,29.02
2019-01-25T06:25:26.980Z,29.48
2019-01-25T06:27:55.421Z,30.67
2019-01-25T06:30:23.828Z,30.10
2019-01-25T06:32:52.261Z,31.42
2019-01-25T06:35:20.691Z,32.85
2019-01-25T06:37:49.099Z,30.75
2019-01-25T06:40:17.527Z,29.20
2019-01-25T06:42:45.943Z,29.02
2019-01-25T06:45:14.358Z,28.87
2019-01-25T06:47:42.843Z,28.77
2019-01-25T06:50:13.213Z,26.40
2019-01-25T06:52:41.616Z,27.27
2019-01-25T06:55:10.172Z,29.70
2019-01-25T06:57:58.295Z,28.02
2019-01-25T07:00:31.304Z,28.67
2019-01-25T07:02:59.719Z,24.65
2019-01-25T07:05:28.135Z,28.95
2019-01-25T07:07:56.531Z,27.75
2019-01-25T07:10:25.028Z,28.65
2019-01-25T07:12:53.453Z,29.37
2019-01-25T07:15:23.524Z,29.00
2019-01-25T07:17:51.934Z,28.55
2019-01-25T07:20:20.344Z,28.67
2019-01-25T07:22:48.751Z,29.75
2019-01-25T07:25:17.230Z,30.17
2019-01-25T07:27:45.792Z,30.33
2019-01-25T07:30:16.403Z,30.45
2019-01-25T07:32:45.304Z,33.10
2019-01-25T07:35:13.874Z,31.33
2019-01-25T07:37:42.343Z,32.08
2019-01-25T07:40:11.441Z,32.17
2019-01-25T07:42:39.882Z,31.00
2019-01-25T07:45:11.256Z,30.70
2019-01-25T07:47:40.026Z,32.58
2019-01-25T07:50:10.424Z,31.75
2019-01-25T07:52:38.972Z,30.92
2019-01-25T07:55:12.288Z,30.40
2019-01-25T07:57:40.825Z,31.60
2019-01-25T08:00:12.040Z,30.92
2019-01-25T08:02:40.458Z,28.90
2019-01-25T08:05:10.615Z,31.65
2019-01-25T08:07:39.554Z,28.57
2019-01-25T08:10:11.255Z,30.20
2019-01-25T08:12:39.728Z,28.38
2019-01-25T08:15:11.202Z,25.67
2019-01-25T08:17:39.632Z,25.82
2019-01-25T08:20:10.941Z,25.90
2019-01-25T08:22:39.354Z,27.13
2019-01-25T08:25:08.992Z,28.80
2019-01-25T08:27:37.438Z,26.60
2019-01-25T08:30:14.786Z,27.82
2019-01-25T08:32:43.272Z,25.80
2019-01-25T08:35:13.278Z,29.27
2019-01-25T08:37:41.868Z,26.12
2019-01-25T08:40:13.018Z,40.20
2019-01-25T08:42:41.521Z,23.25
2019-01-25T08:45:12.660Z,25.35
2019-01-25T08:47:41.092Z,26.33
2019-01-25T08:50:24.734Z,26.50
2019-01-25T08:52:53.643Z,26.70
2019-01-25T08:55:22.179Z,28.15
2019-01-25T08:57:50.671Z,24.55
2019-01-25T09:00:23.495Z,25.95
2019-01-25T09:02:52.149Z,25.97
2019-01-25T09:05:20.547Z,29.35
2019-01-25T09:07:48.983Z,25.32
2019-01-25T09:10:23.050Z,25.40
2019-01-25T09:12:51.460Z,24.65
2019-01-25T09:15:25.581Z,24.80
2019-01-25T09:17:54.019Z,26.17
2019-01-25T09:20:22.800Z,23.27
2019-01-25T09:22:51.216Z,25.25
2019-01-25T09:25:19.682Z,26.90
2019-01-25T09:27:48.678Z,41.63
2019-01-25T09:30:25.767Z,26.02
2019-01-25T09:32:54.414Z,23.30
2019-01-25T09:35:23.056Z,24.23
2019-01-25T09:37:52.060Z,23.02
2019-01-25T09:40:23.210Z,25.20
2019-01-25T09:42:52.019Z,25.50
2019-01-25T09:45:20.890Z,23.70
2019-01-25T09:47:49.300Z,24.40
2019-01-25T09:50:20.527Z,24.25
2019-01-25T09:52:48.950Z,24.13
2019-01-25T09:55:19.586Z,23.25
2019-01-25T09:57:48.337Z,25.00
2019-01-25T10:00:19.833Z,25.70
2019-01-25T10:02:48.245Z,25.27
2019-01-25T10:05:17.063Z,24.03
2019-01-25T10:07:45.475Z,24.60
2019-01-25T10:10:14.325Z,25.90
2019-01-25T10:12:43.530Z,24.03
2019-01-25T10:15:15.504Z,25.37
2019-01-25T10:17:44.012Z,22.05
2019-01-25T10:20:12.981Z,22.67
2019-01-25T10:22:41.392Z,25.60
2019-01-25T10:25:11.055Z,27.27
2019-01-25T10:27:39.517Z,23.70
2019-01-25T10:30:25.651Z,23.60
2019-01-25T10:32:54.061Z,23.38
2019-01-25T10:35:22.811Z,22.02
2019-01-25T10:37:52.103Z,24.00
2019-01-25T10:40:22.728Z,24.18
2019-01-25T10:42:53.444Z,22.98
2019-01-25T10:45:36.371Z,24.60
2019-01-25T10:48:05.716Z,23.90
2019-01-25T10:50:34.452Z,24.67
2019-01-25T10:53:02.901Z,24.57
2019-01-25T10:55:31.315Z,27.65
2019-01-25T10:57:59.725Z,24.60
2019-01-25T11:00:29.148Z,25.30
2019-01-25T11:02:58.561Z,25.92
2019-01-25T11:05:29.050Z,26.00
2019-01-25T11:07:57.428Z,30.55
2019-01-25T11:10:26.157Z,31.55
2019-01-25T11:13:00.843Z,33.70
2019-01-25T11:15:25.515Z,35.05
2019-01-25T11:17:53.917Z,32.85
2019-01-25T11:20:26.064Z,31.10
2019-01-25T11:22:54.539Z,37.83
2019-01-25T11:25:31.498Z,39.60
2019-01-25T11:28:00.271Z,33.92
2019-01-25T11:30:28.887Z,30.25
2019-01-25T11:32:57.300Z,30.05
2019-01-25T11:35:25.719Z,32.48
2019-01-25T11:37:54.199Z,30.60
2019-01-25T11:40:34.168Z,30.53
2019-01-25T11:43:08.515Z,30.95
2019-01-25T11:45:32.752Z,30.08
2019-01-25T11:48:01.202Z,31.42
2019-01-25T11:50:29.611Z,32.35
2019-01-25T11:52:58.043Z,31.27
2019-01-25T11:55:26.554Z,30.60
2019-01-25T11:57:54.987Z,29.90
2019-01-25T12:00:29.661Z,27.48
2019-01-25T12:02:58.075Z,26.35
2019-01-25T12:05:26.493Z,27.40
2019-01-25T12:07:55.764Z,27.47
2019-01-25T12:10:26.868Z,28.20
2019-01-25T12:12:55.315Z,30.40
2019-01-25T12:15:23.721Z,28.47
2019-01-25T12:17:52.137Z,29.10
2019-01-25T12:20:25.395Z,29.50
2019-01-25T12:22:54.068Z,29.95
2019-01-25T12:25:22.563Z,30.43
2019-01-25T12:27:51.041Z,31.57
2019-01-25T12:30:30.734Z,29.00
2019-01-25T12:32:59.539Z,32.15
2019-01-25T12:35:33.236Z,31.57
2019-01-25T12:38:01.660Z,32.48
2019-01-25T12:40:30.065Z,33.73
2019-01-25T12:42:58.474Z,33.60
2019-01-25T12:45:31.027Z,34.10
2019-01-25T12:47:59.460Z,37.03
2019-01-25T12:50:40.020Z,37.57
2019-01-25T12:53:10.500Z,34.78
2019-01-25T12:55:39.082Z,36.25
2019-01-25T12:58:07.662Z,39.83
2019-01-25T13:00:36.127Z,35.63
2019-01-25T13:03:05.284Z,36.20
2019-01-25T13:05:33.680Z,36.03
2019-01-25T13:08:02.106Z,39.85
2019-01-25T13:10:30.496Z,39.50
2019-01-25T13:12:58.975Z,37.00
2019-01-25T13:15:27.418Z,36.30
2019-01-25T13:17:55.904Z,36.03
2019-01-25T13:20:31.179Z,35.68
2019-01-25T13:22:59.581Z,34.53
2019-01-25T13:25:27.989Z,34.90
2019-01-25T13:27:56.474Z,35.10
2019-01-25T13:30:27.482Z,35.03
2019-01-25T13:32:55.915Z,34.67
2019-01-25T13:35:24.464Z,34.03
2019-01-25T13:37:53.046Z,35.77
2019-01-25T13:40:23.397Z,37.83
2019-01-25T13:42:51.937Z,36.95
2019-01-25T13:45:21.988Z,39.05
2019-01-25T13:47:50.530Z,37.20
2019-01-25T13:50:21.672Z,40.20
2019-01-25T13:52:50.136Z,37.90
2019-01-25T13:55:19.181Z,39.47
2019-01-25T13:57:47.595Z,41.00
2019-01-25T14:00:22.927Z,39.05
2019-01-25T14:02:51.619Z,38.20
2019-01-25T14:05:20.100Z,37.80
2019-01-25T14:07:48.649Z,38.30
2019-01-25T14:10:26.029Z,39.73
2019-01-25T14:12:54.473Z,41.50
2019-01-25T14:15:22.975Z,41.20
2019-01-25T14:17:51.371Z,41.20
2019-01-25T14:20:24.978Z,41.83
2019-01-25T14:22:53.461Z,42.23
2019-01-25T14:25:22.356Z,43.17
2019-01-25T14:27:51.136Z,42.43
2019-01-25T14:30:31.439Z,45.48
2019-01-25T14:32:59.935Z,45.03
2019-01-25T14:35:28.548Z,44.88
2019-01-25T14:37:56.962Z,47.17
2019-01-25T14:40:25.387Z,49.58
2019-01-25T14:42:53.864Z,46.48
2019-01-25T14:45:22.284Z,45.08
2019-01-25T14:47:50.712Z,43.92
2019-01-25T14:50:21.840Z,47.65
2019-01-25T14:52:50.237Z,46.88
2019-01-25T14:55:18.975Z,49.33
2019-01-25T14:57:47.384Z,47.17
2019-01-25T15:00:16.473Z,47.80
2019-01-25T15:02:44.966Z,49.10
2019-01-25T15:05:16.280Z,48.15
2019-01-25T15:07:44.777Z,49.42
2019-01-25T15:10:16.206Z,47.33
2019-01-25T15:12:45.560Z,50.17
2019-01-25T15:15:14.964Z,49.65
2019-01-25T15:17:43.596Z,46.92
2019-01-25T15:20:20.719Z,50.17
2019-01-25T15:22:49.133Z,48.08
2019-01-25T15:25:17.816Z,47.83
2019-01-25T15:27:46.296Z,49.25
2019-01-25T15:30:20.556Z,46.65
2019-01-25T15:32:49.097Z,48.33
2019-01-25T15:35:19.912Z,47.20
2019-01-25T15:37:48.604Z,47.08
2019-01-25T15:40:19.197Z,44.98
2019-01-25T15:42:47.920Z,44.33
2019-01-25T15:45:18.701Z,41.50
2019-01-25T15:47:47.216Z,49.60
2019-01-25T15:50:21.173Z,48.80
2019-01-25T15:52:49.941Z,44.77
2019-01-25T15:55:18.966Z,42.80
2019-01-25T15:57:47.385Z,41.85
2019-01-25T16:00:21.091Z,38.45
2019-01-25T16:02:49.599Z,44.98
2019-01-25T16:05:19.758Z,42.13
2019-01-25T16:07:49.810Z,38.48
2019-01-25T16:10:22.925Z,38.53
2019-01-25T16:12:52.015Z,39.90
2019-01-25T16:15:28.036Z,39.42
2019-01-25T16:17:56.665Z,38.35
2019-01-25T16:20:25.066Z,37.33
2019-01-25T16:22:54.736Z,38.65
2019-01-25T16:25:25.813Z,38.50
2019-01-25T16:27:54.661Z,38.73
2019-01-25T16:30:28.739Z,40.78
2019-01-25T16:32:57.182Z,40.17
2019-01-25T16:35:25.575Z,40.37
2019-01-25T16:37:54.003Z,40.27
2019-01-25T16:40:27.959Z,39.70
2019-01-25T16:42:56.699Z,37.98
2019-01-25T16:45:39.703Z,38.23
2019-01-25T16:48:08.903Z,38.53
2019-01-25T16:50:37.320Z,38.58
2019-01-25T16:53:07.772Z,36.70
2019-01-25T16:55:36.200Z,37.80
2019-01-25T16:58:04.973Z,41.28
2019-01-25T17:00:41.753Z,38.85
2019-01-25T17:03:10.228Z,41.00
2019-01-25T17:05:38.652Z,36.80
2019-01-25T17:08:07.310Z,37.45
2019-01-25T17:10:36.100Z,37.85
2019-01-25T17:13:04.977Z,39.60
2019-01-25T17:15:33.468Z,39.30
2019-01-25T17:18:01.880Z,40.40
2019-01-25T17:20:30.430Z,39.65
2019-01-25T17:22:59.102Z,39.33
2019-01-25T17:25:27.522Z,38.23
2019-01-25T17:27:55.938Z,38.67
2019-01-25T17:30:27.417Z,38.50
2019-01-25T17:32:57.463Z,41.75
2019-01-25T17:35:25.883Z,39.47
2019-01-25T17:37:54.371Z,39.43
2019-01-25T17:40:25.783Z,42.17
2019-01-25T17:42:54.279Z,40.45
2019-01-25T17:45:22.710Z,40.03
2019-01-25T17:47:51.141Z,39.13
2019-01-25T17:50:19.691Z,40.23
2019-01-25T17:52:48.119Z,40.48
2019-01-25T17:55:17.671Z,40.12
2019-01-25T17:57:46.091Z,38.27
2019-01-25T18:00:17.806Z,37.90
2019-01-25T18:02:46.226Z,38.00
2019-01-25T18:05:14.663Z,38.80
2019-01-25T18:07:44.276Z,36.90
2019-01-25T18:10:21.267Z,37.60
2019-01-25T18:12:49.669Z,38.30
2019-01-25T18:15:18.457Z,35.83
2019-01-25T18:17:47.135Z,37.08
2019-01-25T18:20:18.056Z,38.45
2019-01-25T18:22:46.460Z,37.40
2019-01-25T18:25:45.211Z,36.98
2019-01-25T18:28:16.691Z,36.88
2019-01-25T18:30:48.180Z,36.00
2019-01-25T18:33:16.580Z,38.70
2019-01-25T18:35:45.010Z,39.07
2019-01-25T18:38:13.415Z,36.13
2019-01-25T18:40:41.835Z,37.85
2019-01-25T18:43:10.264Z,37.28
2019-01-25T18:45:38.683Z,37.70
2019-01-25T18:48:07.170Z,37.20
2019-01-25T18:50:35.603Z,37.17
2019-01-25T18:53:04.294Z,38.02
2019-01-25T18:55:32.712Z,37.70
2019-01-25T18:58:01.116Z,37.47
2019-01-25T19:00:29.863Z,37.08
2019-01-25T19:02:58.287Z,37.20
2019-01-25T19:05:26.696Z,35.60
2019-01-25T19:07:55.103Z,34.45
2019-01-25T19:10:30.103Z,37.10
2019-01-25T19:12:58.549Z,35.03
2019-01-25T19:15:33.211Z,36.23
2019-01-25T19:18:01.635Z,35.88
2019-01-25T19:20:30.070Z,36.25
2019-01-25T19:22:58.472Z,34.67
2019-01-25T19:25:26.899Z,36.40
2019-01-25T19:27:55.312Z,34.63
2019-01-25T19:30:31.788Z,35.78
2019-01-25T19:33:00.221Z,33.98
2019-01-25T19:35:28.629Z,34.25
2019-01-25T19:37:57.493Z,38.25
2019-01-25T19:40:31.719Z,35.87
2019-01-25T19:43:00.210Z,36.10
2019-01-25T19:45:28.887Z,36.57
2019-01-25T19:47:57.315Z,35.98
2019-01-25T19:50:25.792Z,36.38
2019-01-25T19:52:54.573Z,36.70
2019-01-25T19:55:25.785Z,38.90
2019-01-25T19:57:54.360Z,36.65
2019-01-25T20:00:28.135Z,36.48
2019-01-25T20:02:56.625Z,38.70
2019-01-25T20:05:32.293Z,39.30
2019-01-25T20:08:01.336Z,39.73
2019-01-25T20:10:29.749Z,39.13
2019-01-25T20:12:58.332Z,41.37
2019-01-25T20:15:27.676Z,40.70
2019-01-25T20:17:56.457Z,39.15
2019-01-25T20:20:33.731Z,39.67
2019-01-25T20:23:02.149Z,40.75
2019-01-25T20:25:30.555Z,40.90
2019-01-25T20:27:59.071Z,41.68
2019-01-25T20:30:29.440Z,43.48
2019-01-25T20:32:58.019Z,40.20
2019-01-25T20:35:32.228Z,40.65
2019-01-25T20:38:00.627Z,41.02
2019-01-25T20:40:29.099Z,43.02
2019-01-25T20:42:57.551Z,43.83
2019-01-25T20:45:28.696Z,42.17
2019-01-25T20:47:57.124Z,43.48
2019-01-25T20:50:27.564Z,43.70
2019-01-25T20:52:56.379Z,45.48
2019-01-25T20:55:25.289Z,44.67
2019-01-25T20:57:54.551Z,47.17
2019-01-25T21:00:31.783Z,46.45
2019-01-25T21:03:00.492Z,46.92
2019-01-25T21:05:29.007Z,45.30
2019-01-25T21:07:57.499Z,46.05
2019-01-25T21:10:26.504Z,47.10
2019-01-25T21:12:55.080Z,45.95
2019-01-25T21:15:25.727Z,47.78
2019-01-25T21:17:54.591Z,47.40
2019-01-25T21:20:25.899Z,48.00
2019-01-25T21:22:54.335Z,45.85
2019-01-25T21:25:22.742Z,45.30
2019-01-25T21:27:51.156Z,45.55
2019-01-25T21:30:22.712Z,46.02
2019-01-25T21:32:51.195Z,47.50
2019-01-25T21:35:19.662Z,47.15
2019-01-25T21:37:48.108Z,46.48
2019-01-25T21:40:19.224Z,46.85
2019-01-25T21:42:47.704Z,46.20
2019-01-25T21:45:21.298Z,44.83
2019-01-25T21:47:50.052Z,47.00
2019-01-25T21:50:21.539Z,47.93
2019-01-25T21:52:49.947Z,47.57
2019-01-25T21:55:18.430Z,46.35
2019-01-25T21:57:46.931Z,48.60
2019-01-25T22:00:26.780Z,47.88
2019-01-25T22:02:55.219Z,45.75
2019-01-25T22:05:23.884Z,47.85
2019-01-25T22:07:52.682Z,47.23
2019-01-25T22:10:26.716Z,48.33
2019-01-25T22:12:55.139Z,46.58
2019-01-25T22:15:23.569Z,48.05
2019-01-25T22:17:52.044Z,44.50
2019-01-25T22:20:25.772Z,44.08
2019-01-25T22:22:54.237Z,46.63
2019-01-25T22:25:22.892Z,45.83
2019-01-25T22:27:52.631Z,42.73
2019-01-25T22:30:23.215Z,45.50
2019-01-25T22:32:52.056Z,45.60
2019-01-25T22:35:20.617Z,46.20
2019-01-25T22:37:49.022Z,44.35
2019-01-25T22:40:19.878Z,45.20
2019-01-25T22:42:48.296Z,43.63
2019-01-25T22:45:19.712Z,46.33
2019-01-25T22:47:48.257Z,46.00
2019-01-25T22:50:21.843Z,45.03
2019-01-25T22:52:50.394Z,47.15
2019-01-25T22:55:21.489Z,45.37
2019-01-25T22:57:50.227Z,48.38
2019-01-25T23:00:35.380Z,46.85
2019-01-25T23:03:04.080Z,42.90
2019-01-25T23:05:59.883Z,44.23
2019-01-25T23:08:28.285Z,43.75
2019-01-25T23:10:56.708Z,42.23
2019-01-25T23:13:25.151Z,42.35
2019-01-25T23:15:53.571Z,41.10
2019-01-25T23:18:21.967Z,43.73
2019-01-25T23:20:50.414Z,43.30
2019-01-25T23:23:18.835Z,43.97
2019-01-25T23:25:47.264Z,45.97
2019-01-25T23:28:15.659Z,45.30
2019-01-25T23:30:44.101Z,42.03
2019-01-25T23:33:12.519Z,46.58
2019-01-25T23:35:40.927Z,43.78
2019-01-25T23:38:09.407Z,43.70
2019-01-25T23:40:37.843Z,43.08
2019-01-25T23:43:06.248Z,40.92
2019-01-25T23:45:34.659Z,39.48
2019-01-25T23:48:03.135Z,40.38
2019-01-25T23:50:31.564Z,39.08
2019-01-25T23:52:59.958Z,36.45
2019-01-25T23:55:28.382Z,37.38
2019-01-25T23:57:56.801Z,34.48
